Catàleg de serveis del Meteocat
Campanya meteocatpedra

Dades de l'estació automàtica Malniu (2.230 m)

?
?
Resum diari 23:00 TU
Dades diàries de l'estació meteorològica
Temperatura mitjana 10.9 °C
Temperatura màxima 15.7 °C 16:25 TU
Temperatura mínima 6.1 °C 4:39 TU
Humitat relativa mitjana 42%
Precipitació acumulada 0.1 mm
Gruix de neu màxim 1 cm
Ratxa màxima del vent (6 m) 33.5 km/h - 272º 12:26 TU
Irradiació solar global 33.5 MJ/m2

El tram horari està expressat en Temps Universal (TU). Cal sumar una hora en horari d'hivern i dues en horari d'estiu per passar a l'hora oficial.

Malniu (2.230 m)

Metadades estació meteorol´gica
Municipi Meranges
Comarca Cerdanya
Altitud 2230 m
Data alta 03.11.1999
Estat actual Operativa
Dades de període
Període
TU
TM
°C
TX
°C
TN
°C
HRM
%
PPT
mm
GN
cm
VVM (6 m)
km/h
DVM (6 m)
graus
VVX (6 m)
km/h
RS
W/m2
00:00 - 00:30 7.7 7.9 7.6 67 0.0 0 2.5 340 7.9 0
00:30 - 01:00 7.6 8.2 7.2 68 0.0 0 1.8 351 9.7 0
01:00 - 01:30 7.3 7.7 6.9 69 0.0 0 1.4 332 7.9 0
01:30 - 02:00 7.1 7.2 6.9 69 0.0 0 1.8 349 6.8 0
02:00 - 02:30 7.3 7.6 7.0 68 0.0 0 3.2 6 8.6 0
02:30 - 03:00 7.4 7.6 7.1 67 0.0 0 2.2 47 6.1 0
03:00 - 03:30 7.1 7.4 6.8 67 0.0 0 2.5 305 10.1 0
03:30 - 04:00 7.2 7.4 6.9 61 0.0 0 3.6 340 22.3 0
04:00 - 04:30 7.0 7.4 6.6 60 0.0 0 5.4 284 20.2 0
04:30 - 05:00 6.6 7.3 6.1 63 0.0 0 2.9 289 14.0 8
05:00 - 05:30 7.1 7.3 7.0 51 0.0 0 5.4 278 15.8 65
05:30 - 06:00 7.8 8.3 7.3 53 0.0 0 5.4 293 15.8 196
06:00 - 06:30 8.1 8.6 7.7 52 0.0 0 6.1 260 22.7 299
06:30 - 07:00 9.0 9.8 8.5 49 0.0 0 5.4 288 18.0 403
07:00 - 07:30 9.0 9.8 8.5 52 0.0 0 6.8 279 18.4 508
07:30 - 08:00 9.5 10.3 8.9 49 0.0 0 6.5 281 19.4 609
08:00 - 08:30 10.3 10.8 9.6 45 0.0 0 7.2 252 20.2 700
08:30 - 09:00 11.2 12.5 10.1 45 0.0 0 5.4 208 18.7 782
09:00 - 09:30 11.4 12.5 10.7 45 0.0 0 6.5 291 26.3 862
09:30 - 10:00 12.3 13.2 11.5 46 0.0 0 5.0 170 16.6 926
10:00 - 10:30 13.5 14.2 12.6 42 0.0 0 4.7 139 17.3 976
10:30 - 11:00 14.1 14.8 13.5 47 0.0 0 5.4 175 18.7 1.015
11:00 - 11:30 13.6 14.1 12.8 40 0.0 0 6.1 191 21.6 1.051
11:30 - 12:00 13.6 14.1 13.2 33 0.0 0 8.6 266 23.4 1.068
12:00 - 12:30 13.8 14.7 13.3 34 0.0 0 13.7 272 33.5 1.070
12:30 - 13:00 13.6 13.9 13.2 36 0.0 0 13.0 280 25.2 1.055
13:00 - 13:30 13.9 14.2 13.4 32 0.0 0 13.0 271 26.6 1.027
13:30 - 14:00 14.3 14.7 14.0 31 0.0 0 12.2 276 26.3 983
14:00 - 14:30 14.9 15.6 14.3 32 0.0 0 8.6 279 27.7 926
14:30 - 15:00 14.8 15.3 14.5 32 0.0 (s/d) 6.8 343 23.0 861
15:00 - 15:30 14.6 14.9 14.3 34 0.0 (s/d) 8.3 326 25.9 790
15:30 - 16:00 14.6 14.9 14.5 29 0.0 (s/d) 9.0 347 29.2 708
16:00 - 16:30 15.0 15.7 14.5 27 0.0 (s/d) 6.8 264 30.2 610
16:30 - 17:00 15.0 15.6 14.1 27 0.0 (s/d) 5.0 125 22.0 503
17:00 - 17:30 13.8 14.1 13.5 31 0.0 (s/d) 5.4 94 11.9 395
17:30 - 18:00 14.0 14.7 13.1 30 0.1 (s/d) 1.4 277 7.2 238
18:00 - 18:30 12.8 13.0 12.4 30 0.0 (s/d) 1.4 35 5.0 26
18:30 - 19:00 12.2 12.4 12.0 31 0.0 1 3.6 52 9.0 17
19:00 - 19:30 11.8 12.3 11.4 29 0.0 (s/d) 2.9 337 7.6 5
19:30 - 20:00 11.2 11.8 10.9 29 0.0 (s/d) 3.6 297 9.4 0
20:00 - 20:30 10.5 11.0 10.1 30 0.0 (s/d) 1.4 313 6.8 0
20:30 - 21:00 9.8 10.1 9.5 31 0.0 (s/d) 0.7 322 8.6 0
21:00 - 21:30 9.7 10.0 9.6 29 0.0 (s/d) 2.2 325 9.0 0
21:30 - 22:00 10.1 10.5 9.7 23 0.0 (s/d) 1.4 285 5.0 0
22:00 - 22:30 9.3 9.8 9.1 24 0.0 (s/d) 0.7 335 6.8 0
22:30 - 23:00 9.6 10.1 9.0 22 0.0 (s/d) 4.7 354 10.4 0
23:00 - 23:30 9.5 10.3 8.5 24 0.0 0 2.9 334 8.3 0

Les dades en taronja només han passat un control de qualitat automàtic. Resta pendent la seva validació definitiva.